Time;durP1;ratioP1;P1;durP2;ratioP2;P2;SDS_P1;SDS_P2;PMS_P1;PMS_P2;Temp;Humidity;BMP_temperature;BMP_pressure;BME280_temperature;BME280_humidity;BME280_pressure;Samples;Min_cycle;Max_cycle;Signal;HPM_P1;HPM_P2
2022/10/07 00:00:58;;;;;;;5.43;2.03;;;9.70;99.90;;;;;;5030248;28;20445;-37
2022/10/07 00:03:26;;;;;;;7.53;2.13;;;9.80;99.90;;;;;;5029037;28;20422;-37
2022/10/07 00:06:09;;;;;;;5.70;2.00;;;9.90;99.90;;;;;;5030098;28;20208;-38
2022/10/07 00:08:38;;;;;;;3.40;2.10;;;10.00;99.90;;;;;;5029868;28;20499;-37
2022/10/07 00:11:07;;;;;;;3.47;1.80;;;10.00;99.90;;;;;;5030066;28;20432;-37
2022/10/07 00:13:32;;;;;;;8.50;2.60;;;10.20;99.90;;;;;;5029161;28;20421;-37
2022/10/07 00:16:13;;;;;;;3.10;1.80;;;10.20;99.90;;;;;;5030085;28;20598;-37
2022/10/07 00:18:40;;;;;;;3.53;1.60;;;10.10;99.90;;;;;;5029760;28;20220;-38
2022/10/07 00:21:09;;;;;;;4.43;1.77;;;10.10;99.90;;;;;;5042378;28;20428;-37
2022/10/07 00:23:35;;;;;;;5.17;2.10;;;10.10;99.90;;;;;;5029132;28;20456;-38
2022/10/07 00:26:03;;;;;;;6.30;2.53;;;9.90;99.90;;;;;;5024800;28;20499;-37
2022/10/07 00:28:29;;;;;;;5.27;2.27;;;9.90;99.90;;;;;;5029525;28;20491;-37
2022/10/07 00:31:03;;;;;;;7.20;2.70;;;10.10;99.90;;;;;;5029695;28;20464;-37
2022/10/07 00:33:31;;;;;;;5.80;2.57;;;10.10;99.90;;;;;;5029149;28;20421;-37
2022/10/07 00:35:56;;;;;;;4.87;2.17;;;10.20;99.90;;;;;;5029787;28;20504;-37
2022/10/07 00:38:22;;;;;;;5.17;1.90;;;10.20;99.90;;;;;;5029543;28;20556;-37
2022/10/07 00:40:48;;;;;;;5.47;2.43;;;10.20;99.90;;;;;;5029511;28;20220;-37
2022/10/07 00:43:25;;;;;;;4.50;1.90;;;10.40;99.90;;;;;;5029132;28;20187;-37
2022/10/07 00:45:54;;;;;;;6.37;2.30;;;10.50;99.90;;;;;;5029814;28;20544;-37
2022/10/07 00:48:25;;;;;;;6.00;2.77;;;10.50;99.90;;;;;;5029633;28;20448;-37
2022/10/07 00:50:52;;;;;;;6.60;2.20;;;10.50;99.90;;;;;;5029752;28;20479;-38
2022/10/07 00:53:20;;;;;;;4.87;2.03;;;10.50;99.90;;;;;;5028624;28;20421;-37
2022/10/07 00:55:45;;;;;;;6.13;2.27;;;10.50;99.90;;;;;;5028093;28;20441;-37
2022/10/07 00:58:12;;;;;;;2.57;1.77;;;10.60;99.90;;;;;;5029337;28;20500;-37
2022/10/07 01:00:39;;;;;;;6.83;2.90;;;10.50;99.90;;;;;;5029680;28;20209;-37
2022/10/07 01:03:04;;;;;;;6.43;2.20;;;10.50;99.90;;;;;;5028794;28;20425;-37
2022/10/07 01:05:30;;;;;;;6.00;2.83;;;10.60;99.90;;;;;;5029220;28;20552;-37
2022/10/07 01:07:57;;;;;;;7.30;2.53;;;10.60;99.90;;;;;;5030859;28;20837;-37
2022/10/07 01:10:30;;;;;;;9.63;2.33;;;10.60;99.90;;;;;;5033204;28;20201;-37
2022/10/07 01:13:13;;;;;;;5.73;2.30;;;10.50;99.90;;;;;;5032511;28;20463;-37
2022/10/07 01:15:45;;;;;;;7.33;2.00;;;10.70;99.90;;;;;;5033200;28;20425;-37
2022/10/07 01:18:25;;;;;;;6.30;2.17;;;10.80;99.90;;;;;;5031601;28;20466;-37
2022/10/07 01:21:22;;;;;;;6.37;2.17;;;10.90;99.90;;;;;;5043534;28;20424;-37
2022/10/07 01:24:03;;;;;;;3.97;1.90;;;10.80;99.90;;;;;;5022758;28;20417;-37
2022/10/07 01:27:00;;;;;;;6.50;2.90;;;10.80;99.90;;;;;;5032802;28;20416;-37
2022/10/07 01:29:54;;;;;;;5.23;2.83;;;10.80;99.90;;;;;;5031526;28;20421;-37
2022/10/07 01:32:31;;;;;;;5.90;2.60;;;10.80;99.90;;;;;;5032664;28;20979;-37
2022/10/07 01:34:58;;;;;;;4.83;2.37;;;10.80;99.90;;;;;;5032031;28;20425;-37
2022/10/07 01:37:29;;;;;;;7.40;2.80;;;10.80;99.90;;;;;;5032773;28;20472;-37
2022/10/07 01:40:00;;;;;;;5.60;2.77;;;10.70;99.90;;;;;;5032709;28;20925;-37
2022/10/07 01:42:28;;;;;;;4.50;2.60;;;10.70;99.90;;;;;;5032567;28;20429;-37
2022/10/07 01:44:56;;;;;;;3.47;2.03;;;10.70;99.90;;;;;;5032172;28;20429;-37
2022/10/07 01:47:23;;;;;;;3.50;2.23;;;10.60;99.90;;;;;;5032321;28;20433;-37
2022/10/07 01:49:49;;;;;;;5.83;2.60;;;10.70;99.90;;;;;;5032547;28;20512;-37
2022/10/07 01:52:42;;;;;;;4.33;2.33;;;10.70;99.90;;;;;;5032138;28;20520;-37
2022/10/07 01:55:30;;;;;;;6.13;2.60;;;10.80;99.90;;;;;;5030956;28;20607;-37
2022/10/07 01:58:10;;;;;;;6.20;3.27;;;10.80;99.90;;;;;;5031973;28;20464;-38
2022/10/07 02:00:43;;;;;;;12.47;4.40;;;10.80;99.90;;;;;;5032193;28;20908;-37
2022/10/07 02:03:36;;;;;;;7.77;3.57;;;10.90;99.90;;;;;;5031453;28;20421;-37
2022/10/07 02:06:12;;;;;;;5.13;2.63;;;10.90;99.90;;;;;;5031936;28;20778;-37
2022/10/07 02:08:42;;;;;;;7.83;2.90;;;10.90;99.90;;;;;;5032212;28;20515;-37
2022/10/07 02:11:15;;;;;;;5.50;2.83;;;11.00;99.90;;;;;;5032047;28;20429;-37
2022/10/07 02:13:54;;;;;;;11.13;3.80;;;10.90;99.90;;;;;;5030298;28;20468;-37
2022/10/07 02:16:48;;;;;;;5.87;3.27;;;11.00;99.90;;;;;;5031257;28;20787;-37
2022/10/07 02:19:36;;;;;;;5.27;2.53;;;11.00;99.90;;;;;;5031593;28;20429;-39
2022/10/07 02:22:03;;;;;;;13.13;2.93;;;10.90;99.90;;;;;;5020949;28;20423;-39
2022/10/07 02:24:34;;;;;;;5.33;2.57;;;10.90;99.90;;;;;;5031206;28;20844;-37
2022/10/07 02:27:04;;;;;;;6.53;2.73;;;10.80;99.90;;;;;;5031613;28;20895;-37
2022/10/07 02:29:34;;;;;;;7.17;3.07;;;10.80;99.90;;;;;;5031971;28;20884;-37
2022/10/07 02:32:04;;;;;;;5.60;2.50;;;10.70;99.90;;;;;;5031606;28;20849;-39
2022/10/07 02:34:32;;;;;;;5.60;3.07;;;10.70;99.90;;;;;;5031177;28;20478;-37
2022/10/07 02:37:03;;;;;;;6.57;2.50;;;10.80;99.90;;;;;;5031581;28;20483;-38
2022/10/07 02:39:29;;;;;;;5.87;3.00;;;10.80;99.90;;;;;;5031258;28;20444;-38
2022/10/07 02:42:15;;;;;;;6.47;2.60;;;10.70;99.90;;;;;;5031458;28;20449;-37
2022/10/07 02:45:06;;;;;;;4.30;2.37;;;10.70;99.90;;;;;;5030933;28;20183;-38
2022/10/07 02:47:40;;;;;;;4.60;2.13;;;10.70;99.90;;;;;;5031215;28;20919;-37
2022/10/07 02:50:11;;;;;;;3.80;2.40;;;10.70;99.90;;;;;;5031145;28;20427;-37
2022/10/07 02:52:40;;;;;;;5.63;2.53;;;10.70;99.90;;;;;;5030663;28;20429;-38
2022/10/07 02:55:15;;;;;;;5.80;2.60;;;10.60;99.90;;;;;;5029655;28;20417;-38
2022/10/07 02:57:44;;;;;;;8.30;2.70;;;10.50;99.90;;;;;;5031169;28;20456;-37
2022/10/07 03:00:12;;;;;;;3.60;2.17;;;10.50;99.90;;;;;;5031150;28;20516;-37
2022/10/07 03:02:57;;;;;;;4.13;2.77;;;10.50;99.90;;;;;;5030409;28;20457;-37
2022/10/07 03:05:24;;;;;;;4.80;2.27;;;10.40;99.90;;;;;;5030991;28;20446;-37
2022/10/07 03:07:55;;;;;;;5.50;2.77;;;10.50;99.90;;;;;;5030946;28;20425;-37
2022/10/07 03:10:21;;;;;;;5.33;2.40;;;10.50;99.90;;;;;;5031010;28;20433;-37
2022/10/07 03:12:47;;;;;;;4.60;2.23;;;10.40;99.90;;;;;;5028771;28;20439;-37
2022/10/07 03:15:12;;;;;;;7.00;2.47;;;10.30;99.90;;;;;;5030833;28;20586;-38
2022/10/07 03:17:39;;;;;;;4.87;2.37;;;10.30;99.90;;;;;;5030755;28;20527;-38
2022/10/07 03:20:07;;;;;;;4.07;2.03;;;10.20;99.90;;;;;;5030858;28;20510;-37
2022/10/07 03:22:32;;;;;;;3.63;2.60;;;10.20;99.90;;;;;;5030596;28;20434;-38
2022/10/07 03:24:58;;;;;;;4.27;2.20;;;10.20;99.90;;;;;;5030151;28;20426;-37
2022/10/07 03:27:24;;;;;;;5.30;2.30;;;10.10;99.90;;;;;;5030360;28;20698;-37
2022/10/07 03:29:50;;;;;;;4.43;2.47;;;10.10;99.90;;;;;;5029985;28;20190;-37
2022/10/07 03:32:16;;;;;;;3.43;2.20;;;10.00;99.90;;;;;;5030506;28;20437;-37
2022/10/07 03:34:41;;;;;;;5.93;2.23;;;9.80;99.90;;;;;;5028619;28;20187;-37
2022/10/07 03:37:07;;;;;;;9.00;2.57;;;9.80;99.90;;;;;;5030549;28;20221;-37
2022/10/07 03:39:33;;;;;;;4.17;2.27;;;9.70;99.90;;;;;;5030329;28;20198;-37
2022/10/07 03:41:59;;;;;;;6.20;2.13;;;9.60;99.90;;;;;;5030373;28;20650;-37
2022/10/07 03:44:25;;;;;;;4.70;2.30;;;9.70;99.90;;;;;;5028310;28;20755;-37
2022/10/07 03:46:51;;;;;;;4.10;1.53;;;9.80;99.90;;;;;;5030485;28;20482;-37
2022/10/07 03:49:19;;;;;;;5.43;2.80;;;9.80;99.90;;;;;;5030201;28;20475;-37
2022/10/07 03:51:44;;;;;;;5.33;2.30;;;9.70;99.90;;;;;;5030296;28;20194;-37
2022/10/07 03:54:10;;;;;;;7.40;2.13;;;9.80;99.90;;;;;;5026636;28;20428;-38
2022/10/07 03:56:36;;;;;;;4.77;2.00;;;9.90;99.90;;;;;;5029900;28;20232;-37
2022/10/07 03:59:02;;;;;;;4.07;2.27;;;9.70;99.90;;;;;;5030227;28;20988;-37
2022/10/07 04:01:30;;;;;;;3.67;2.13;;;9.70;99.90;;;;;;5030046;28;20186;-37
2022/10/07 04:03:57;;;;;;;3.20;2.00;;;9.70;99.90;;;;;;5029548;28;20688;-37
2022/10/07 04:06:22;;;;;;;6.33;2.10;;;9.80;99.90;;;;;;5029953;28;20603;-38
2022/10/07 04:08:52;;;;;;;3.40;1.87;;;9.90;99.90;;;;;;5030139;28;20968;-37
2022/10/07 04:11:18;;;;;;;3.07;1.77;;;9.90;99.90;;;;;;5029788;28;20202;-37
2022/10/07 04:13:47;;;;;;;3.57;2.27;;;10.00;99.90;;;;;;5029500;28;20425;-37
2022/10/07 04:16:12;;;;;;;4.33;1.93;;;10.00;99.90;;;;;;5029933;28;20432;-37
2022/10/07 04:18:40;;;;;;;3.60;1.63;;;9.80;99.90;;;;;;5030052;28;20469;-37
2022/10/07 04:21:07;;;;;;;5.07;2.17;;;10.00;99.90;;;;;;5042928;28;20181;-37
2022/10/07 04:23:34;;;;;;;3.47;1.97;;;10.10;99.90;;;;;;5029060;28;20432;-37
2022/10/07 04:25:59;;;;;;;2.73;1.70;;;10.00;99.90;;;;;;5029715;28;20468;-37
2022/10/07 04:28:25;;;;;;;4.17;2.23;;;9.90;99.90;;;;;;5029952;28;20932;-37
2022/10/07 04:30:52;;;;;;;4.70;2.10;;;9.90;99.90;;;;;;5029782;28;20273;-37
2022/10/07 04:33:20;;;;;;;6.50;2.00;;;9.90;99.90;;;;;;5029174;28;20515;-37
2022/10/07 04:35:47;;;;;;;3.70;2.00;;;9.80;99.90;;;;;;5029712;28;20433;-37
2022/10/07 04:38:14;;;;;;;3.53;2.17;;;9.80;99.90;;;;;;5028295;28;20467;-37
2022/10/07 04:40:45;;;;;;;5.23;2.33;;;9.90;99.90;;;;;;5029769;28;20865;-37
2022/10/07 04:43:19;;;;;;;3.87;2.20;;;9.80;99.90;;;;;;5032979;28;20836;-38
2022/10/07 04:45:51;;;;;;;5.87;1.90;;;9.80;99.90;;;;;;5033678;28;20421;-37
2022/10/07 04:48:18;;;;;;;5.40;2.43;;;9.90;99.90;;;;;;5033618;28;20556;-37
2022/10/07 04:50:43;;;;;;;7.50;2.27;;;9.90;99.90;;;;;;5032177;28;20440;-37
2022/10/07 04:53:13;;;;;;;4.20;2.23;;;10.00;99.90;;;;;;5029220;28;21513;-37
2022/10/07 04:55:50;;;;;;;3.90;2.43;;;10.10;99.90;;;;;;5026817;28;20770;-37
2022/10/07 04:58:17;;;;;;;3.03;1.70;;;10.00;99.90;;;;;;5026911;28;20830;-37
2022/10/07 05:00:45;;;;;;;6.80;2.10;;;10.00;99.90;;;;;;5035481;28;20525;-37
2022/10/07 05:03:13;;;;;;;4.67;1.90;;;10.10;99.90;;;;;;5032331;28;20485;-37
2022/10/07 05:05:43;;;;;;;7.13;1.80;;;10.10;99.90;;;;;;5033297;28;20449;-38
2022/10/07 05:08:09;;;;;;;5.30;2.33;;;10.20;99.90;;;;;;5033061;28;20425;-37
2022/10/07 05:10:36;;;;;;;3.10;1.70;;;10.30;99.90;;;;;;5033365;28;20420;-37
2022/10/07 05:13:02;;;;;;;5.27;1.80;;;10.30;99.90;;;;;;5032385;28;20516;-37
2022/10/07 05:15:28;;;;;;;3.00;2.13;;;10.30;99.90;;;;;;5029610;28;20528;-37
2022/10/07 05:17:54;;;;;;;4.80;1.97;;;10.30;99.90;;;;;;5029688;28;20869;-37
2022/10/07 05:20:21;;;;;;;6.50;1.87;;;10.20;99.90;;;;;;5036374;28;20189;-37
2022/10/07 05:22:47;;;;;;;4.90;1.93;;;10.20;99.90;;;;;;5032478;28;20448;-37
2022/10/07 05:25:13;;;;;;;4.17;2.00;;;10.20;99.90;;;;;;5032918;28;20455;-37
2022/10/07 05:27:39;;;;;;;4.83;2.10;;;10.30;99.90;;;;;;5032501;28;20437;-37
2022/10/07 05:30:07;;;;;;;3.60;2.50;;;10.20;99.90;;;;;;5040960;28;21136;-37
2022/10/07 05:32:33;;;;;;;5.03;2.13;;;10.20;99.90;;;;;;5052185;28;20436;-37
2022/10/07 05:34:58;;;;;;;4.10;1.90;;;10.20;99.90;;;;;;5051167;28;20447;-37
2022/10/07 05:37:24;;;;;;;4.40;2.10;;;10.10;99.90;;;;;;5044690;28;20486;-37
2022/10/07 05:39:50;;;;;;;3.63;1.77;;;10.10;99.90;;;;;;5031988;28;20658;-37
2022/10/07 05:42:16;;;;;;;5.60;2.13;;;10.00;99.90;;;;;;5032429;28;20199;-38
2022/10/07 05:44:42;;;;;;;6.53;2.30;;;10.00;99.90;;;;;;5031971;28;20483;-37
2022/10/07 05:47:08;;;;;;;3.53;1.70;;;10.10;99.90;;;;;;5032430;28;20461;-37
2022/10/07 05:49:34;;;;;;;4.93;2.23;;;10.10;99.90;;;;;;5032466;28;20216;-37
2022/10/07 05:52:01;;;;;;;5.20;1.80;;;10.10;99.90;;;;;;5031847;28;20293;-37
2022/10/07 05:54:27;;;;;;;4.27;2.10;;;10.20;99.90;;;;;;5029108;28;20457;-37
2022/10/07 05:56:52;;;;;;;8.10;2.40;;;10.20;99.90;;;;;;5032275;28;20499;-37
2022/10/07 05:59:19;;;;;;;3.30;1.60;;;10.20;99.90;;;;;;5032263;28;20959;-37
2022/10/07 06:01:45;;;;;;;7.60;2.10;;;10.20;99.90;;;;;;5032134;28;20263;-38
2022/10/07 06:04:11;;;;;;;5.50;2.03;;;10.30;99.90;;;;;;5031154;28;20429;-38
2022/10/07 06:06:37;;;;;;;5.70;1.60;;;10.10;99.90;;;;;;5031420;28;20550;-37
2022/10/07 06:14:32;;;;;;;5.90;1.73;;;10.40;99.90;;;;;;5032510;28;20425;-37
2022/10/07 06:16:58;;;;;;;5.70;1.83;;;10.50;99.90;;;;;;5033407;28;20480;-38
2022/10/07 06:19:23;;;;;;;9.77;2.20;;;10.50;99.90;;;;;;5031851;28;20837;-38
2022/10/07 06:21:50;;;;;;;4.70;2.07;;;10.50;99.90;;;;;;5038481;28;20205;-38
2022/10/07 06:24:15;;;;;;;3.83;1.63;;;10.60;99.90;;;;;;5031162;28;20556;-38
2022/10/07 06:26:41;;;;;;;6.37;1.80;;;10.60;99.90;;;;;;5029801;28;20468;-38
2022/10/07 06:29:07;;;;;;;8.40;2.30;;;10.70;99.90;;;;;;5030447;28;20190;-37
2022/10/07 06:31:33;;;;;;;7.53;2.20;;;10.80;99.90;;;;;;5031582;28;20236;-38
2022/10/07 06:33:59;;;;;;;3.13;2.00;;;10.90;99.90;;;;;;5030259;28;20422;-37
2022/10/07 06:36:25;;;;;;;7.33;2.00;;;11.00;99.90;;;;;;5031399;28;20429;-37
2022/10/07 06:38:52;;;;;;;3.40;1.70;;;11.00;99.90;;;;;;5031491;28;20233;-38
2022/10/07 06:41:18;;;;;;;4.90;2.20;;;11.00;99.90;;;;;;5031218;28;20440;-38
2022/10/07 06:43:44;;;;;;;5.53;1.83;;;11.00;99.90;;;;;;5030823;28;20424;-37
2022/10/07 06:46:18;;;;;;;4.63;1.60;;;11.00;99.90;;;;;;5031330;28;20421;-38
2022/10/07 06:48:45;;;;;;;4.10;1.80;;;11.10;99.90;;;;;;5031408;28;20433;-38
2022/10/07 06:51:18;;;;;;;3.40;1.80;;;11.20;99.90;;;;;;5031094;28;20440;-38
2022/10/07 06:53:44;;;;;;;4.73;2.03;;;11.20;99.90;;;;;;5026952;28;20435;-38
2022/10/07 06:56:13;;;;;;;4.50;1.53;;;11.30;99.90;;;;;;5029904;28;20769;-38
2022/10/07 06:58:39;;;;;;;4.17;1.97;;;11.30;99.90;;;;;;5031247;28;20861;-37
2022/10/07 07:01:05;;;;;;;5.10;1.80;;;11.40;99.90;;;;;;5029898;28;20761;-37
2022/10/07 07:03:31;;;;;;;6.77;2.60;;;11.50;99.90;;;;;;5031703;28;20916;-37
2022/10/07 07:05:57;;;;;;;5.97;1.70;;;11.50;99.90;;;;;;5040871;28;20864;-38
2022/10/07 07:08:26;;;;;;;10.00;1.93;;;11.50;99.90;;;;;;5050667;28;20522;-38
2022/10/07 07:10:52;;;;;;;5.27;2.17;;;11.60;99.90;;;;;;5050857;28;20779;-38
2022/10/07 07:13:18;;;;;;;2.53;2.13;;;11.70;99.90;;;;;;5050099;28;20436;-38
2022/10/07 07:15:57;;;;;;;6.37;2.00;;;11.80;99.90;;;;;;5050751;28;20428;-38
2022/10/07 07:18:23;;;;;;;3.30;1.73;;;12.00;99.90;;;;;;5050642;28;20262;-38
2022/10/07 07:20:49;;;;;;;3.80;1.70;;;12.10;99.90;;;;;;5047037;28;20441;-38
2022/10/07 07:23:15;;;;;;;6.20;2.17;;;12.20;99.90;;;;;;5049457;28;20425;-38
2022/10/07 07:25:44;;;;;;;10.90;2.07;;;12.40;99.90;;;;;;5050720;28;20718;-39
2022/10/07 07:28:15;;;;;;;4.03;2.00;;;12.60;99.90;;;;;;5050481;28;20220;-39
2022/10/07 07:30:41;;;;;;;6.83;1.60;;;12.80;99.90;;;;;;5050740;28;20424;-37
2022/10/07 07:33:07;;;;;;;8.20;2.33;;;13.10;99.90;;;;;;5049708;28;20499;-37
2022/10/07 07:35:37;;;;;;;5.73;2.10;;;13.30;99.90;;;;;;5050317;28;20515;-38
2022/10/07 07:38:03;;;;;;;6.90;1.87;;;13.60;99.90;;;;;;5050272;28;20467;-38
2022/10/07 07:40:28;;;;;;;4.60;1.87;;;13.80;99.90;;;;;;5049209;28;20768;-37
2022/10/07 07:42:54;;;;;;;4.07;2.00;;;14.00;99.90;;;;;;5048284;28;20760;-38
2022/10/07 07:45:21;;;;;;;6.07;1.90;;;14.30;99.90;;;;;;5050392;28;20196;-37
2022/10/07 07:47:48;;;;;;;3.47;1.50;;;14.40;99.90;;;;;;5050011;28;20191;-38
2022/10/07 07:50:16;;;;;;;5.90;2.40;;;14.60;99.90;;;;;;5039688;28;20437;-37
2022/10/07 07:52:42;;;;;;;11.90;4.73;;;14.70;99.90;;;;;;5029477;28;20924;-38
2022/10/07 07:55:07;;;;;;;7.50;1.70;;;14.90;99.90;;;;;;5028609;28;20433;-39
2022/10/07 07:57:33;;;;;;;6.43;1.90;;;15.00;99.90;;;;;;5030165;28;20562;-37
2022/10/07 07:59:59;;;;;;;6.97;1.63;;;15.10;99.90;;;;;;5030115;28;20213;-38
2022/10/07 08:02:24;;;;;;;7.43;1.87;;;15.20;99.90;;;;;;5029800;28;20432;-38
2022/10/07 08:04:50;;;;;;;7.63;2.50;;;15.40;99.90;;;;;;5029482;28;20190;-37
2022/10/07 08:07:16;;;;;;;6.57;2.03;;;15.50;99.90;;;;;;5028915;28;20193;-37
2022/10/07 08:09:41;;;;;;;7.03;1.83;;;15.50;99.90;;;;;;5028669;28;20190;-38
2022/10/07 08:12:07;;;;;;;9.20;2.10;;;15.60;99.90;;;;;;5030234;28;20208;-38
2022/10/07 08:14:33;;;;;;;5.90;1.77;;;15.70;99.90;;;;;;5027956;28;20194;-38
2022/10/07 08:16:59;;;;;;;4.30;1.97;;;15.80;99.90;;;;;;5029338;28;20484;-39
2022/10/07 08:19:26;;;;;;;6.90;2.13;;;15.90;99.90;;;;;;5029889;28;20194;-38
2022/10/07 08:21:52;;;;;;;7.47;2.53;;;16.00;99.90;;;;;;5040367;28;20436;-37
2022/10/07 08:24:18;;;;;;;9.83;2.17;;;16.00;99.90;;;;;;5027781;28;20417;-38
2022/10/07 08:26:44;;;;;;;5.33;1.90;;;16.10;99.90;;;;;;5030022;28;20417;-38
2022/10/07 08:29:10;;;;;;;4.63;1.80;;;16.20;99.90;;;;;;5029754;28;20486;-38
2022/10/07 08:31:35;;;;;;;6.53;2.37;;;16.20;99.90;;;;;;5029789;28;20430;-38
2022/10/07 08:34:03;;;;;;;6.27;2.50;;;16.30;99.90;;;;;;5029239;28;20682;-38
2022/10/07 08:36:31;;;;;;;6.97;2.10;;;16.40;99.90;;;;;;5029997;28;20516;-37
2022/10/07 08:38:58;;;;;;;6.30;2.27;;;16.50;99.90;;;;;;5029517;28;20472;-38
2022/10/07 08:41:35;;;;;;;8.10;2.30;;;16.50;99.90;;;;;;5029752;28;20449;-38
2022/10/07 08:44:17;;;;;;;6.17;1.90;;;16.60;99.90;;;;;;5028747;28;20427;-38
2022/10/07 08:47:11;;;;;;;20.40;3.93;;;16.70;99.90;;;;;;5029798;28;20416;-37
2022/10/07 08:49:39;;;;;;;4.80;1.90;;;16.90;99.90;;;;;;5029705;28;20413;-38
2022/10/07 08:52:27;;;;;;;9.70;2.00;;;17.00;99.90;;;;;;5029685;28;20525;-38
2022/10/07 08:54:52;;;;;;;8.80;2.10;;;17.10;99.90;;;;;;5028136;28;20424;-38
2022/10/07 08:57:48;;;;;;;6.03;2.13;;;17.20;99.90;;;;;;5029514;28;20461;-37
2022/10/07 09:00:18;;;;;;;5.27;1.80;;;17.30;99.90;;;;;;5029312;28;20194;-38
2022/10/07 09:02:54;;;;;;;4.30;1.60;;;17.30;99.90;;;;;;5028832;28;20508;-38
2022/10/07 09:05:32;;;;;;;5.10;2.20;;;17.40;99.90;;;;;;5029323;28;20441;-38
2022/10/07 09:08:10;;;;;;;6.37;1.90;;;17.50;99.90;;;;;;5029434;28;20519;-38
2022/10/07 09:10:44;;;;;;;4.67;1.60;;;17.50;99.90;;;;;;5029531;28;20412;-37
2022/10/07 09:13:16;;;;;;;9.43;2.67;;;17.60;99.90;;;;;;5028626;28;20819;-38
2022/10/07 09:16:03;;;;;;;5.80;2.10;;;17.70;99.90;;;;;;5029631;28;20479;-38
2022/10/07 09:18:35;;;;;;;6.27;2.03;;;17.80;99.90;;;;;;5029268;28;20468;-38
2022/10/07 09:21:06;;;;;;;8.37;1.87;;;17.90;99.90;;;;;;5042532;28;20432;-38
2022/10/07 09:23:33;;;;;;;8.43;1.50;;;18.00;99.90;;;;;;5027366;28;20425;-38
2022/10/07 09:25:59;;;;;;;6.63;2.10;;;18.00;99.90;;;;;;5029055;28;20488;-37
2022/10/07 09:28:29;;;;;;;5.97;1.90;;;18.10;99.90;;;;;;5030137;28;20437;-38
2022/10/07 09:30:59;;;;;;;8.97;1.87;;;18.20;99.90;;;;;;5032784;28;20282;-38
2022/10/07 09:33:28;;;;;;;4.83;1.80;;;18.20;99.90;;;;;;5032373;28;21010;-38
2022/10/07 09:35:56;;;;;;;8.37;2.20;;;18.30;99.90;;;;;;5032701;28;20429;-38
2022/10/07 09:38:36;;;;;;;5.20;1.90;;;18.40;99.90;;;;;;5032407;28;20452;-38
2022/10/07 09:41:18;;;;;;;4.87;1.50;;;18.40;99.90;;;;;;5031231;28;20460;-37
2022/10/07 09:44:18;;;;;;;9.53;3.00;;;18.50;99.90;;;;;;5032214;28;20520;-38
2022/10/07 09:46:51;;;;;;;4.67;2.43;;;18.60;99.90;;;;;;5032344;28;20417;-39
2022/10/07 09:49:29;;;;;;;5.50;2.10;;;18.60;99.90;;;;;;5032484;28;20436;-38
2022/10/07 09:52:02;;;;;;;9.70;1.97;;;18.60;99.80;;;;;;5032373;28;20421;-39
2022/10/07 09:54:30;;;;;;;7.47;2.30;;;18.60;99.90;;;;;;5030973;28;20425;-38
2022/10/07 09:56:58;;;;;;;8.47;1.90;;;18.60;99.90;;;;;;5030710;28;20468;-38
2022/10/07 09:59:27;;;;;;;7.60;2.13;;;18.80;99.70;;;;;;5032576;28;20488;-38
2022/10/07 10:01:57;;;;;;;3.20;1.90;;;18.80;99.70;;;;;;5032305;28;20452;-39
2022/10/07 10:04:31;;;;;;;8.50;2.00;;;18.90;99.70;;;;;;5046916;28;20947;-38
2022/10/07 10:07:04;;;;;;;8.80;2.17;;;19.00;99.40;;;;;;5031628;28;20523;-38
2022/10/07 10:09:31;;;;;;;6.33;1.80;;;19.10;99.50;;;;;;5030933;28;20529;-38
2022/10/07 10:12:14;;;;;;;6.00;1.90;;;19.20;99.30;;;;;;5031453;28;20417;-38
2022/10/07 10:14:46;;;;;;;5.90;2.10;;;19.20;99.20;;;;;;5031457;28;20421;-38
2022/10/07 10:17:29;;;;;;;6.23;1.80;;;19.10;98.90;;;;;;5031909;28;20461;-38
2022/10/07 10:20:15;;;;;;;7.00;1.90;;;19.10;98.60;;;;;;5035918;28;20424;-38
2022/10/07 10:22:40;;;;;;;6.20;1.90;;;19.10;98.80;;;;;;5036826;28;20436;-37
2022/10/07 10:28:02;;;;;;;5.37;2.20;;;19.10;99.40;;;;;;5031709;28;20190;-37
2022/10/07 10:30:29;;;;;;;9.13;2.20;;;19.10;98.40;;;;;;5031748;28;20425;-38
2022/10/07 10:33:30;;;;;;;8.00;2.60;;;19.00;98.60;;;;;;5031049;28;20528;-37
2022/10/07 10:36:25;;;;;;;9.80;2.40;;;19.00;98.70;;;;;;5031752;28;20452;-38
2022/10/07 10:39:18;;;;;;;5.70;2.23;;;19.00;98.80;;;;;;5030996;28;20502;-38
2022/10/07 10:41:58;;;;;;;9.53;2.00;;;18.90;98.40;;;;;;5031025;28;20505;-38
2022/10/07 10:44:31;;;;;;;6.70;1.73;;;18.70;98.80;;;;;;5030795;28;20459;-38
2022/10/07 10:47:21;;;;;;;8.70;2.10;;;18.70;99.20;;;;;;5046546;28;20422;-38
2022/10/07 10:49:56;;;;;;;5.97;1.63;;;18.70;99.30;;;;;;5031459;28;20763;-38
2022/10/07 10:52:31;;;;;;;8.53;1.80;;;18.60;98.80;;;;;;5031367;28;20495;-38
2022/10/07 10:55:18;;;;;;;7.60;2.70;;;18.50;98.80;;;;;;5029840;28;20416;-38
2022/10/07 10:57:53;;;;;;;8.00;2.23;;;18.50;98.90;;;;;;5020947;28;20472;-38
2022/10/07 11:00:21;;;;;;;4.60;1.60;;;18.40;98.90;;;;;;5030050;28;20425;-38
2022/10/07 11:03:23;;;;;;;7.47;1.80;;;18.50;98.90;;;;;;5030563;28;20417;-38
2022/10/07 11:05:50;;;;;;;6.47;1.90;;;18.40;98.70;;;;;;5030726;28;20455;-37
2022/10/07 11:08:30;;;;;;;8.30;2.50;;;18.40;99.00;;;;;;5030927;28;20780;-38
2022/10/07 11:11:08;;;;;;;9.30;2.20;;;18.50;99.30;;;;;;5030885;28;20783;-38
2022/10/07 11:13:53;;;;;;;6.97;1.50;;;18.40;99.20;;;;;;5017265;28;20425;-38
2022/10/07 11:16:29;;;;;;;3.30;1.60;;;18.50;99.20;;;;;;5030712;28;20834;-38
2022/10/07 11:19:15;;;;;;;4.97;1.73;;;18.60;98.30;;;;;;5024101;28;20474;-38
2022/10/07 11:21:47;;;;;;;7.80;1.50;;;18.60;98.30;;;;;;5022934;28;20502;-38
2022/10/07 11:24:33;;;;;;;4.47;1.40;;;18.70;98.30;;;;;;5030610;28;20438;-37
2022/10/07 11:27:13;;;;;;;6.53;1.70;;;18.80;97.90;;;;;;5050605;28;20427;-38
2022/10/07 11:30:02;;;;;;;3.07;1.80;;;18.80;97.70;;;;;;5038114;28;20412;-38
2022/10/07 11:32:30;;;;;;;5.03;1.83;;;18.90;98.90;;;;;;5030205;28;20920;-38
2022/10/07 11:35:05;;;;;;;7.07;1.50;;;19.00;98.30;;;;;;5029408;28;20417;-38
2022/10/07 11:38:13;;;;;;;6.37;2.10;;;19.10;97.70;;;;;;5030214;28;20457;-38
2022/10/07 11:40:48;;;;;;;4.03;1.70;;;19.20;97.70;;;;;;5030234;28;20464;-38
2022/10/07 11:43:24;;;;;;;4.17;1.63;;;19.20;97.60;;;;;;5027839;28;20428;-37
2022/10/07 11:45:59;;;;;;;6.80;1.63;;;19.20;97.20;;;;;;5030092;28;20424;-38
2022/10/07 11:48:35;;;;;;;9.03;1.73;;;19.20;97.60;;;;;;5030138;28;20428;-37
2022/10/07 11:51:04;;;;;;;4.67;1.97;;;19.30;97.70;;;;;;5029341;28;20425;-38
2022/10/07 11:53:35;;;;;;;11.83;2.40;;;19.40;97.10;;;;;;5029333;28;20425;-38
2022/10/07 11:56:43;;;;;;;7.03;1.87;;;19.40;96.90;;;;;;5029075;28;20449;-39
2022/10/07 11:59:36;;;;;;;6.67;2.10;;;19.40;96.70;;;;;;5029393;28;20990;-38
2022/10/07 12:02:03;;;;;;;8.80;2.67;;;19.40;96.90;;;;;;5029481;28;20421;-38
2022/10/07 12:04:28;;;;;;;5.70;1.93;;;19.50;96.60;;;;;;5027731;28;21058;-38
2022/10/07 12:07:32;;;;;;;7.70;2.07;;;19.50;96.50;;;;;;5029823;28;20531;-38
2022/10/07 12:10:00;;;;;;;6.40;2.00;;;19.50;96.10;;;;;;5028555;28;20190;-38
2022/10/07 12:12:41;;;;;;;5.80;2.10;;;19.50;96.60;;;;;;5028165;28;20808;-38
2022/10/07 12:15:21;;;;;;;7.10;2.47;;;19.40;96.60;;;;;;5029656;28;20756;-39
2022/10/07 12:18:22;;;;;;;7.20;2.70;;;19.40;96.70;;;;;;5029640;28;20449;-38
2022/10/07 12:20:48;;;;;;;8.23;2.50;;;19.40;96.50;;;;;;5027549;28;20502;-38
2022/10/07 12:23:21;;;;;;;4.30;1.47;;;19.40;96.90;;;;;;5023466;28;20421;-38
2022/10/07 12:25:59;;;;;;;8.83;2.60;;;19.40;97.00;;;;;;5028530;28;20257;-38
2022/10/07 12:28:37;;;;;;;6.13;1.80;;;19.40;97.00;;;;;;5037642;28;20446;-38
2022/10/07 12:31:05;;;;;;;4.73;1.90;;;19.40;97.00;;;;;;5047268;28;20795;-38
2022/10/07 12:33:39;;;;;;;8.67;2.30;;;19.40;96.90;;;;;;5047615;28;20778;-38
2022/10/07 12:36:20;;;;;;;6.97;2.67;;;19.40;96.90;;;;;;5046644;28;20423;-38
2022/10/07 12:39:00;;;;;;;3.43;2.10;;;19.40;97.20;;;;;;5047292;28;20559;-38
2022/10/07 12:41:35;;;;;;;6.43;2.23;;;19.30;97.10;;;;;;5049617;28;20847;-39
2022/10/07 12:44:13;;;;;;;8.50;3.00;;;19.20;97.80;;;;;;5048712;28;20439;-38
2022/10/07 12:46:59;;;;;;;7.17;2.70;;;19.30;97.90;;;;;;5047543;28;20416;-38
2022/10/07 12:49:28;;;;;;;5.87;2.40;;;19.30;97.60;;;;;;5049348;28;20459;-38
2022/10/07 12:51:57;;;;;;;6.30;1.97;;;19.30;97.70;;;;;;5046897;28;20428;-38
2022/10/07 12:54:32;;;;;;;8.97;3.10;;;19.30;97.30;;;;;;5047761;28;20526;-38
2022/10/07 12:56:59;;;;;;;9.47;2.50;;;19.30;97.00;;;;;;5023232;28;20428;-38
2022/10/07 12:59:48;;;;;;;8.70;3.00;;;19.20;96.90;;;;;;5039268;28;20417;-38
2022/10/07 13:02:49;;;;;;;5.77;3.00;;;19.20;97.50;;;;;;5036972;28;20427;-38
2022/10/07 13:05:52;;;;;;;9.23;3.27;;;19.20;98.30;;;;;;5028386;28;20789;-38
2022/10/07 13:08:33;;;;;;;7.53;2.37;;;19.20;97.80;;;;;;5031790;28;20424;-39
2022/10/07 13:11:07;;;;;;;7.10;2.93;;;19.20;98.50;;;;;;5031659;28;20424;-38
2022/10/07 13:13:38;;;;;;;8.90;2.53;;;19.30;98.70;;;;;;5045088;28;20408;-38
2022/10/07 13:16:22;;;;;;;8.27;2.80;;;19.40;97.90;;;;;;5033485;28;20503;-38
2022/10/07 13:19:01;;;;;;;6.67;2.33;;;19.40;97.80;;;;;;5032973;28;20547;-38
2022/10/07 13:21:35;;;;;;;6.13;2.80;;;19.40;97.80;;;;;;5038053;28;20460;-38